Time;durP1;ratioP1;P1;durP2;ratioP2;P2;SDS_P1;SDS_P2;PMS_P1;PMS_P2;Temp;Humidity;BMP_temperature;BMP_pressure;BME280_temperature;BME280_humidity;BME280_pressure;Samples;Min_cycle;Max_cycle;Signal;HPM_P1;HPM_P2
2021/06/20 00:00:48;;;;;;;8.57;7.50;;;25.20;99.90;;;;;;5054845;28;20270;-60
2021/06/20 00:03:14;;;;;;;8.48;7.72;;;25.20;99.90;;;;;;5055916;28;20246;-58
2021/06/20 00:05:49;;;;;;;7.80;7.20;;;25.10;99.90;;;;;;5055767;28;20207;-53
2021/06/20 00:08:15;;;;;;;8.07;7.38;;;25.10;99.90;;;;;;5055511;28;20187;-59
2021/06/20 00:10:41;;;;;;;8.23;7.60;;;25.00;99.90;;;;;;5054303;28;20248;-59
2021/06/20 00:13:07;;;;;;;8.85;8.05;;;25.10;99.90;;;;;;5055531;28;20171;-56
2021/06/20 00:15:35;;;;;;;7.93;7.10;;;25.00;99.90;;;;;;5054730;28;20635;-60
2021/06/20 00:18:00;;;;;;;8.13;7.50;;;25.00;99.90;;;;;;5054984;28;20229;-56
2021/06/20 00:20:30;;;;;;;8.60;7.85;;;24.90;99.90;;;;;;5055191;28;20168;-58
2021/06/20 00:22:55;;;;;;;8.38;7.68;;;24.80;99.90;;;;;;5055238;28;20186;-53
2021/06/20 00:25:23;;;;;;;8.63;7.57;;;24.80;99.90;;;;;;5054656;28;20222;-58
2021/06/20 00:27:49;;;;;;;7.93;7.32;;;24.70;99.90;;;;;;5055198;28;20190;-51
2021/06/20 00:30:18;;;;;;;8.40;7.60;;;24.70;99.90;;;;;;5055604;28;20186;-51
2021/06/20 00:32:45;;;;;;;9.23;7.80;;;24.60;99.90;;;;;;5053960;28;20175;-54
2021/06/20 00:35:11;;;;;;;7.65;7.00;;;24.60;99.90;;;;;;5055677;28;20719;-53
2021/06/20 00:37:37;;;;;;;7.85;7.15;;;24.60;99.90;;;;;;5054598;28;20211;-58
2021/06/20 00:40:04;;;;;;;9.07;7.40;;;24.60;99.90;;;;;;5055210;28;20495;-57
2021/06/20 00:42:31;;;;;;;8.02;7.40;;;24.60;99.90;;;;;;5053561;28;20267;-58
2021/06/20 00:44:56;;;;;;;7.75;7.03;;;24.50;99.90;;;;;;5055368;28;20187;-51
2021/06/20 00:47:22;;;;;;;8.63;7.93;;;24.50;99.90;;;;;;5053919;28;20275;-60
2021/06/20 00:49:47;;;;;;;8.50;7.72;;;24.40;99.90;;;;;;5054422;28;20178;-60
2021/06/20 00:52:13;;;;;;;8.73;7.55;;;24.40;99.90;;;;;;5072097;28;20266;-56
2021/06/20 00:54:48;;;;;;;8.45;7.75;;;24.40;99.90;;;;;;5074318;28;20217;-53
2021/06/20 00:57:15;;;;;;;8.30;7.60;;;24.40;99.90;;;;;;5074581;28;20189;-61
2021/06/20 00:59:43;;;;;;;9.30;8.43;;;24.30;99.90;;;;;;5073581;28;20177;-57
2021/06/20 01:02:13;;;;;;;8.57;7.88;;;24.30;99.90;;;;;;5074788;28;20179;-56
2021/06/20 01:04:40;;;;;;;9.40;7.90;;;24.20;99.90;;;;;;5073304;28;20225;-60
2021/06/20 01:07:05;;;;;;;8.38;7.57;;;24.20;99.90;;;;;;5074409;28;20591;-57
2021/06/20 01:09:31;;;;;;;8.20;7.40;;;24.20;99.90;;;;;;5073963;28;20259;-57
2021/06/20 01:11:57;;;;;;;9.05;7.70;;;24.20;99.90;;;;;;5073449;28;20653;-57
2021/06/20 01:14:23;;;;;;;9.02;8.13;;;24.20;99.90;;;;;;5074816;28;20167;-55
2021/06/20 01:16:54;;;;;;;8.43;7.63;;;24.20;99.90;;;;;;5073993;28;20193;-61
2021/06/20 01:19:19;;;;;;;8.75;7.80;;;24.10;99.90;;;;;;5074515;28;20174;-53
2021/06/20 01:21:46;;;;;;;8.13;7.32;;;24.20;99.90;;;;;;5073502;28;20304;-53
2021/06/20 01:24:12;;;;;;;8.70;7.90;;;24.10;99.90;;;;;;5073791;28;20167;-58
2021/06/20 01:26:38;;;;;;;7.80;7.10;;;24.00;99.90;;;;;;5074418;28;20210;-56
2021/06/20 01:29:07;;;;;;;7.75;7.05;;;24.00;99.90;;;;;;5073306;28;20185;-56
2021/06/20 01:31:35;;;;;;;8.38;7.57;;;23.90;99.90;;;;;;5074091;28;20187;-56
2021/06/20 01:34:01;;;;;;;8.88;8.18;;;23.90;99.90;;;;;;5073400;28;20863;-58
2021/06/20 01:36:27;;;;;;;8.65;7.93;;;23.80;99.90;;;;;;5073776;28;20208;-60
2021/06/20 01:38:52;;;;;;;7.50;6.90;;;23.80;99.90;;;;;;5074069;28;20183;-57
2021/06/20 01:41:18;;;;;;;8.48;7.72;;;23.80;99.90;;;;;;5072770;28;20178;-59
2021/06/20 01:43:44;;;;;;;8.30;7.60;;;23.80;99.90;;;;;;5073810;28;20198;-52
2021/06/20 01:46:09;;;;;;;8.00;7.35;;;23.80;99.90;;;;;;5073800;28;20194;-61
2021/06/20 01:48:36;;;;;;;8.30;7.55;;;23.70;99.90;;;;;;5073679;28;20212;-54
2021/06/20 01:51:08;;;;;;;8.30;7.50;;;23.70;99.90;;;;;;5073130;28;20257;-52
2021/06/20 01:53:33;;;;;;;8.50;7.70;;;23.70;99.90;;;;;;5072655;28;20221;-55
2021/06/20 01:55:59;;;;;;;8.63;7.82;;;23.70;99.90;;;;;;5072864;28;20204;-51
2021/06/20 01:58:24;;;;;;;8.43;7.70;;;23.70;99.90;;;;;;5071694;28;20617;-54
2021/06/20 02:00:52;;;;;;;8.50;7.70;;;23.60;99.90;;;;;;5073832;28;20562;-61
2021/06/20 02:03:23;;;;;;;8.80;7.90;;;23.70;99.90;;;;;;5073693;28;20205;-58
2021/06/20 02:05:50;;;;;;;8.65;7.85;;;23.60;99.90;;;;;;5073253;28;20279;-58
2021/06/20 02:08:20;;;;;;;8.73;7.82;;;23.60;99.90;;;;;;5074204;28;20252;-51
2021/06/20 02:10:48;;;;;;;8.15;7.35;;;23.60;99.90;;;;;;5073390;28;20227;-50
2021/06/20 02:13:14;;;;;;;8.23;7.53;;;23.60;99.90;;;;;;5072506;28;20181;-59
2021/06/20 02:15:39;;;;;;;8.45;7.72;;;23.60;99.90;;;;;;5073799;28;20185;-54
2021/06/20 02:18:05;;;;;;;10.43;7.57;;;23.60;99.90;;;;;;5072527;28;20213;-56
2021/06/20 02:20:31;;;;;;;8.93;8.13;;;23.60;99.90;;;;;;5073590;28;20208;-61
2021/06/20 02:22:57;;;;;;;9.23;8.43;;;23.60;99.90;;;;;;5072597;28;20171;-57
2021/06/20 02:25:24;;;;;;;8.25;7.55;;;23.50;99.90;;;;;;5073165;28;20267;-53
2021/06/20 02:27:52;;;;;;;8.65;7.95;;;23.50;99.90;;;;;;5073713;28;20198;-58
2021/06/20 02:30:19;;;;;;;8.95;8.15;;;23.50;99.90;;;;;;5073600;28;20185;-52
2021/06/20 02:32:44;;;;;;;8.90;8.10;;;23.50;99.90;;;;;;5072124;28;20197;-58
2021/06/20 02:35:12;;;;;;;10.75;8.52;;;23.50;99.90;;;;;;5073367;28;20185;-57
2021/06/20 02:37:41;;;;;;;9.18;8.30;;;23.50;99.90;;;;;;5073031;28;20206;-58
2021/06/20 02:40:09;;;;;;;8.90;8.10;;;23.40;99.90;;;;;;5072112;28;20188;-55
2021/06/20 02:42:35;;;;;;;9.13;8.32;;;23.40;99.90;;;;;;5072908;28;20178;-52
2021/06/20 02:45:02;;;;;;;14.13;8.10;;;23.40;99.90;;;;;;5072036;28;20212;-52
2021/06/20 02:47:28;;;;;;;8.50;7.68;;;23.30;99.90;;;;;;5073555;28;20289;-52
2021/06/20 02:49:54;;;;;;;9.07;8.27;;;23.30;99.90;;;;;;5073477;28;20204;-55
2021/06/20 02:52:20;;;;;;;8.23;7.53;;;23.30;99.90;;;;;;5072435;28;20680;-54
2021/06/20 02:54:51;;;;;;;9.23;8.30;;;23.40;99.90;;;;;;5073668;28;20181;-57
2021/06/20 02:57:19;;;;;;;8.88;8.07;;;23.30;99.90;;;;;;5071905;28;20619;-58
2021/06/20 02:59:45;;;;;;;8.65;7.82;;;23.30;99.90;;;;;;5073488;28;20216;-50
2021/06/20 03:02:10;;;;;;;9.10;8.20;;;23.30;99.90;;;;;;5075300;28;20262;-58
2021/06/20 03:04:36;;;;;;;9.70;8.80;;;23.40;99.90;;;;;;5076363;28;20205;-55
2021/06/20 03:07:02;;;;;;;9.20;8.30;;;23.30;99.90;;;;;;5076564;28;20196;-55
2021/06/20 03:09:27;;;;;;;9.05;8.25;;;23.20;99.90;;;;;;5077040;28;20633;-59
2021/06/20 03:11:53;;;;;;;8.93;8.13;;;23.20;99.90;;;;;;5076019;28;20192;-56
2021/06/20 03:14:19;;;;;;;9.68;8.88;;;23.20;99.90;;;;;;5076352;28;20174;-59
2021/06/20 03:16:45;;;;;;;8.68;7.97;;;23.10;99.90;;;;;;5075569;28;20233;-54
2021/06/20 03:19:12;;;;;;;8.80;8.00;;;23.10;99.90;;;;;;5075561;28;20210;-52
2021/06/20 03:21:38;;;;;;;8.90;8.10;;;23.00;99.90;;;;;;5076468;28;20188;-52
2021/06/20 03:24:04;;;;;;;9.45;8.48;;;23.10;99.90;;;;;;5076195;28;20242;-58
2021/06/20 03:26:30;;;;;;;10.95;8.68;;;23.10;99.90;;;;;;5075194;28;20211;-61
2021/06/20 03:28:57;;;;;;;9.27;8.07;;;23.10;99.90;;;;;;5076379;28;20192;-57
2021/06/20 03:31:23;;;;;;;9.13;8.27;;;23.10;99.90;;;;;;5075408;28;20174;-58
2021/06/20 03:33:48;;;;;;;8.88;8.02;;;23.10;99.90;;;;;;5076819;28;20184;-54
2021/06/20 03:36:14;;;;;;;8.88;8.07;;;23.10;99.90;;;;;;5075127;28;20646;-52
2021/06/20 03:38:40;;;;;;;9.27;8.43;;;23.10;99.90;;;;;;5075815;28;20193;-55
2021/06/20 03:41:08;;;;;;;9.63;8.52;;;23.10;99.90;;;;;;5075829;28;20652;-55
2021/06/20 03:43:33;;;;;;;8.90;8.10;;;23.20;99.90;;;;;;5075043;28;20178;-60
2021/06/20 03:45:59;;;;;;;8.70;7.90;;;23.20;99.90;;;;;;5076369;28;20209;-55
2021/06/20 03:48:24;;;;;;;9.05;8.25;;;23.30;99.90;;;;;;5076408;28;20226;-58
2021/06/20 03:50:50;;;;;;;8.98;8.20;;;23.30;99.90;;;;;;5075967;28;20637;-56
2021/06/20 03:53:15;;;;;;;8.50;7.70;;;23.30;99.90;;;;;;5074597;28;20748;-54
2021/06/20 03:55:41;;;;;;;9.23;8.50;;;23.40;99.90;;;;;;5075839;28;20193;-60
2021/06/20 03:58:07;;;;;;;9.60;8.70;;;23.40;99.90;;;;;;5074657;28;20205;-54
2021/06/20 04:00:36;;;;;;;9.05;8.35;;;23.40;99.90;;;;;;5075763;28;20177;-56
2021/06/20 04:03:03;;;;;;;9.45;8.60;;;23.30;99.90;;;;;;5075992;28;20212;-53
2021/06/20 04:05:29;;;;;;;8.88;8.07;;;23.30;99.90;;;;;;5074858;28;20201;-57
2021/06/20 04:07:55;;;;;;;9.88;8.98;;;23.30;99.90;;;;;;5075462;28;20188;-59
2021/06/20 04:10:20;;;;;;;9.45;8.50;;;23.10;99.90;;;;;;5075946;28;20174;-54
2021/06/20 04:12:46;;;;;;;9.48;8.63;;;22.90;99.90;;;;;;5073465;28;20546;-53
2021/06/20 04:15:12;;;;;;;9.07;8.27;;;22.90;99.90;;;;;;5075773;28;20186;-58
2021/06/20 04:17:37;;;;;;;9.98;9.18;;;23.00;99.90;;;;;;5074971;28;20218;-55
2021/06/20 04:20:07;;;;;;;9.43;8.48;;;23.20;99.90;;;;;;5073563;28;20227;-55
2021/06/20 04:22:33;;;;;;;8.95;8.15;;;23.30;99.90;;;;;;5075498;28;20185;-56
2021/06/20 04:24:58;;;;;;;9.80;8.80;;;23.40;99.90;;;;;;5074181;28;20206;-54
2021/06/20 04:27:24;;;;;;;9.40;8.60;;;23.50;99.90;;;;;;5075470;28;20503;-59
2021/06/20 04:29:50;;;;;;;8.88;8.07;;;23.60;99.90;;;;;;5075013;28;20206;-60
2021/06/20 04:32:16;;;;;;;8.50;7.80;;;23.70;99.90;;;;;;5073965;28;20538;-53
2021/06/20 04:34:41;;;;;;;8.80;8.13;;;23.80;99.90;;;;;;5060372;28;20635;-54
2021/06/20 04:37:07;;;;;;;8.77;7.97;;;23.90;99.90;;;;;;5058216;28;20352;-57
2021/06/20 04:39:32;;;;;;;8.82;8.13;;;24.00;99.90;;;;;;5074986;28;20173;-56
2021/06/20 04:41:58;;;;;;;8.98;8.10;;;24.10;99.90;;;;;;5071190;28;20609;-59
2021/06/20 04:44:43;;;;;;;8.90;8.10;;;24.20;99.90;;;;;;5054865;28;20577;-51
2021/06/20 04:47:09;;;;;;;9.00;8.20;;;24.30;99.90;;;;;;5054224;28;20568;-57
2021/06/20 04:49:35;;;;;;;9.02;8.15;;;24.40;99.90;;;;;;5061742;28;20503;-58
2021/06/20 04:52:05;;;;;;;8.57;7.88;;;24.50;99.90;;;;;;5073188;28;20634;-53
2021/06/20 04:54:32;;;;;;;8.95;8.18;;;24.60;99.90;;;;;;5074148;28;20216;-57
2021/06/20 04:56:58;;;;;;;8.55;7.82;;;24.70;99.90;;;;;;5073761;28;20226;-61
2021/06/20 04:59:24;;;;;;;8.13;7.43;;;24.80;99.90;;;;;;5054624;28;20222;-56
2021/06/20 05:01:49;;;;;;;8.65;7.95;;;24.90;99.90;;;;;;5054505;28;20176;-58
2021/06/20 05:04:15;;;;;;;8.63;7.93;;;24.90;99.90;;;;;;5071982;28;20198;-57
2021/06/20 05:06:40;;;;;;;8.75;7.90;;;24.90;99.90;;;;;;5074280;28;20255;-51
2021/06/20 05:09:06;;;;;;;8.43;7.72;;;25.00;99.90;;;;;;5070669;28;20221;-56
2021/06/20 05:11:32;;;;;;;8.65;7.95;;;25.00;99.90;;;;;;5074416;28;20201;-60
2021/06/20 05:13:57;;;;;;;8.38;7.53;;;25.10;99.90;;;;;;5057387;28;20179;-57
2021/06/20 05:16:23;;;;;;;8.18;7.47;;;25.00;99.90;;;;;;5057608;28;20262;-52
2021/06/20 05:18:49;;;;;;;8.20;7.50;;;25.10;99.90;;;;;;5053334;28;20535;-61
2021/06/20 05:21:14;;;;;;;8.48;7.63;;;25.20;99.90;;;;;;5070490;28;20642;-59
2021/06/20 05:23:40;;;;;;;8.30;7.57;;;25.10;99.90;;;;;;5070961;28;20209;-62
2021/06/20 05:26:06;;;;;;;8.77;7.93;;;25.10;99.90;;;;;;5071963;28;20859;-57
2021/06/20 05:28:31;;;;;;;8.20;7.53;;;25.20;99.90;;;;;;5073526;28;20276;-57
2021/06/20 05:30:57;;;;;;;9.00;8.10;;;25.20;99.90;;;;;;5058206;28;20333;-61
2021/06/20 05:33:23;;;;;;;7.70;7.10;;;25.20;99.90;;;;;;5065850;28;20219;-60
2021/06/20 05:35:48;;;;;;;8.20;7.40;;;25.30;99.90;;;;;;5062742;28;20191;-56
2021/06/20 05:38:15;;;;;;;9.55;7.80;;;25.30;99.90;;;;;;5053962;28;20226;-57
2021/06/20 05:40:42;;;;;;;8.68;7.88;;;25.40;99.90;;;;;;5061047;28;20203;-61
2021/06/20 05:43:08;;;;;;;9.23;8.32;;;25.40;99.90;;;;;;5072665;28;20186;-57
2021/06/20 05:45:34;;;;;;;8.18;7.55;;;25.40;99.90;;;;;;5067874;28;20320;-56
2021/06/20 05:48:00;;;;;;;8.65;7.72;;;25.50;99.90;;;;;;5053025;28;20198;-60
2021/06/20 05:50:26;;;;;;;8.68;7.80;;;25.50;99.90;;;;;;5066256;28;20239;-58
2021/06/20 05:52:53;;;;;;;8.65;7.85;;;25.50;99.90;;;;;;5072473;28;20298;-56
2021/06/20 05:55:19;;;;;;;9.73;8.82;;;25.60;99.90;;;;;;5069276;28;20171;-61
2021/06/20 05:57:44;;;;;;;10.23;9.35;;;25.70;99.90;;;;;;5060797;28;20195;-61
2021/06/20 06:00:10;;;;;;;9.32;8.52;;;25.60;99.90;;;;;;5072656;28;20531;-59
2021/06/20 06:02:36;;;;;;;8.90;8.10;;;25.60;99.90;;;;;;5065590;28;20224;-60
2021/06/20 06:05:03;;;;;;;9.60;8.55;;;25.60;99.90;;;;;;5052695;28;20211;-60
2021/06/20 06:07:29;;;;;;;9.93;9.07;;;25.80;99.90;;;;;;5055108;28;20203;-59
2021/06/20 06:09:54;;;;;;;9.40;8.50;;;25.80;99.90;;;;;;5052509;28;20180;-59
2021/06/20 06:12:23;;;;;;;10.00;9.10;;;25.80;99.90;;;;;;5053602;28;20170;-58
2021/06/20 06:14:51;;;;;;;9.23;8.40;;;25.90;99.90;;;;;;5052069;28;20187;-59
2021/06/20 06:17:16;;;;;;;9.73;8.90;;;25.90;99.90;;;;;;5052983;28;20191;-53
2021/06/20 06:19:42;;;;;;;9.60;8.80;;;25.90;99.90;;;;;;5052993;28;20225;-57
2021/06/20 06:22:07;;;;;;;8.95;8.15;;;25.80;99.90;;;;;;5053085;28;20171;-55
2021/06/20 06:24:33;;;;;;;8.95;8.18;;;25.80;99.90;;;;;;5053334;28;20175;-59
2021/06/20 06:26:59;;;;;;;9.15;8.35;;;26.00;99.90;;;;;;5053371;28;20241;-58
2021/06/20 06:29:24;;;;;;;8.70;7.90;;;26.10;99.90;;;;;;5053438;28;20558;-56
2021/06/20 06:31:50;;;;;;;8.70;7.90;;;26.20;99.90;;;;;;5052768;28;20266;-60
2021/06/20 06:34:15;;;;;;;8.77;8.05;;;26.40;99.90;;;;;;5053257;28;20181;-56
2021/06/20 06:36:41;;;;;;;9.77;8.77;;;26.30;99.90;;;;;;5055444;28;20205;-58
2021/06/20 06:39:07;;;;;;;8.57;7.88;;;26.30;99.90;;;;;;5056654;28;20259;-56
2021/06/20 06:41:32;;;;;;;10.07;7.95;;;26.40;99.90;;;;;;5057517;28;20635;-59
2021/06/20 06:43:58;;;;;;;8.77;8.07;;;26.60;99.90;;;;;;5057317;28;20179;-62
2021/06/20 06:46:24;;;;;;;10.02;9.13;;;26.60;99.90;;;;;;5056167;28;20223;-55
2021/06/20 06:48:49;;;;;;;8.50;7.80;;;26.60;99.90;;;;;;5057271;28;20163;-58
2021/06/20 06:51:15;;;;;;;8.85;8.15;;;26.70;99.90;;;;;;5056489;28;20205;-60
2021/06/20 06:53:41;;;;;;;8.80;8.10;;;26.80;99.90;;;;;;5057704;28;20516;-62
2021/06/20 06:56:06;;;;;;;9.38;8.50;;;26.90;99.90;;;;;;5057066;28;20179;-61
2021/06/20 06:58:32;;;;;;;9.32;8.55;;;26.90;99.90;;;;;;5055728;28;20206;-62
2021/06/20 07:00:58;;;;;;;9.38;8.48;;;26.90;99.90;;;;;;5055555;28;20183;-60
2021/06/20 07:03:23;;;;;;;8.95;8.15;;;27.00;99.90;;;;;;5055759;28;20179;-60
2021/06/20 07:05:49;;;;;;;9.88;8.98;;;27.10;99.90;;;;;;5057255;28;20223;-60
2021/06/20 07:08:14;;;;;;;10.13;9.27;;;27.20;99.90;;;;;;5056919;28;20198;-60
2021/06/20 07:10:40;;;;;;;9.57;8.70;;;27.20;99.90;;;;;;5056904;28;20262;-62
2021/06/20 07:13:05;;;;;;;9.23;8.52;;;27.20;99.90;;;;;;5056608;28;20176;-58
2021/06/20 07:15:31;;;;;;;9.43;8.63;;;27.10;99.90;;;;;;5055920;28;20180;-58
2021/06/20 07:17:57;;;;;;;9.38;8.57;;;27.30;99.90;;;;;;5057086;28;20223;-61
2021/06/20 07:20:23;;;;;;;9.40;8.68;;;27.20;99.90;;;;;;5055760;28;20184;-57
2021/06/20 07:22:50;;;;;;;9.30;8.40;;;27.10;99.90;;;;;;5056813;28;20189;-59
2021/06/20 07:25:18;;;;;;;9.25;8.35;;;27.10;99.90;;;;;;5056407;28;20299;-60
2021/06/20 07:27:44;;;;;;;8.45;7.75;;;27.20;99.90;;;;;;5055782;28;21046;-57
2021/06/20 07:30:13;;;;;;;9.25;8.52;;;27.40;99.90;;;;;;5066992;28;20185;-54
2021/06/20 07:32:39;;;;;;;9.57;8.32;;;27.50;99.90;;;;;;5075027;28;20171;-40
2021/06/20 07:35:06;;;;;;;8.85;8.05;;;27.50;99.90;;;;;;5076506;28;20182;-38
2021/06/20 07:37:34;;;;;;;10.18;9.27;;;27.20;99.90;;;;;;5074712;28;20229;-41
2021/06/20 07:40:00;;;;;;;9.00;8.20;;;27.10;99.90;;;;;;5065743;28;20187;-41
2021/06/20 07:42:26;;;;;;;9.13;8.30;;;27.00;99.90;;;;;;5075419;28;20183;-37
2021/06/20 07:44:52;;;;;;;9.38;8.57;;;26.90;99.90;;;;;;5074085;28;20209;-40
2021/06/20 07:47:18;;;;;;;9.68;8.88;;;27.00;99.90;;;;;;5069910;28;20225;-37
2021/06/20 07:49:43;;;;;;;10.02;9.23;;;27.10;99.90;;;;;;5055755;28;20493;-38
2021/06/20 07:52:09;;;;;;;10.70;9.80;;;27.20;99.90;;;;;;5054717;28;20171;-40
2021/06/20 07:54:35;;;;;;;10.88;9.98;;;27.30;99.90;;;;;;5071105;28;20171;-44
2021/06/20 07:57:00;;;;;;;9.95;9.15;;;27.10;99.90;;;;;;5055492;28;20274;-41
2021/06/20 07:59:26;;;;;;;13.45;9.38;;;27.20;99.90;;;;;;5055705;28;20185;-40
2021/06/20 08:01:51;;;;;;;9.98;9.18;;;27.00;99.90;;;;;;5054777;28;20203;-39
2021/06/20 08:04:17;;;;;;;10.27;9.40;;;27.00;99.90;;;;;;5055051;28;20691;-38
2021/06/20 08:06:42;;;;;;;10.60;9.68;;;27.30;99.90;;;;;;5055672;28;20199;-37
2021/06/20 08:09:08;;;;;;;10.23;9.23;;;27.40;99.90;;;;;;5054250;28;20233;-42
2021/06/20 08:11:34;;;;;;;9.95;9.15;;;27.90;99.90;;;;;;5055815;28;20163;-40
2021/06/20 08:14:02;;;;;;;9.60;8.80;;;28.20;99.90;;;;;;5054678;28;20654;-61
2021/06/20 08:16:28;;;;;;;10.20;9.20;;;28.50;99.90;;;;;;5055088;28;20175;-64
2021/06/20 08:18:54;;;;;;;10.77;9.80;;;29.10;99.90;;;;;;5055973;28;20228;-55
2021/06/20 08:21:19;;;;;;;10.27;9.40;;;29.30;99.90;;;;;;5054153;28;20639;-64
2021/06/20 08:23:45;;;;;;;10.93;9.95;;;29.30;99.90;;;;;;5055302;28;20206;-57
2021/06/20 08:26:11;;;;;;;9.85;9.05;;;29.60;99.90;;;;;;5053219;28;20286;-58
2021/06/20 08:28:37;;;;;;;10.00;9.20;;;29.50;99.90;;;;;;5055459;28;20325;-58
2021/06/20 08:31:03;;;;;;;10.00;9.10;;;29.80;99.90;;;;;;5054201;28;20171;-63
2021/06/20 08:33:29;;;;;;;10.05;9.07;;;30.00;99.90;;;;;;5055905;28;20178;-58
2021/06/20 08:35:55;;;;;;;9.55;8.85;;;30.20;99.90;;;;;;5055384;28;20164;-62
2021/06/20 08:38:20;;;;;;;9.38;8.65;;;30.30;99.90;;;;;;5053960;28;20609;-63
2021/06/20 08:40:46;;;;;;;9.70;8.80;;;30.50;99.90;;;;;;5055247;28;20262;-63
2021/06/20 08:43:12;;;;;;;9.88;9.18;;;30.40;99.80;;;;;;5053854;28;20254;-63
2021/06/20 08:45:38;;;;;;;10.25;9.35;;;30.30;99.90;;;;;;5055110;28;20230;-59
2021/06/20 08:48:04;;;;;;;10.00;9.20;;;30.40;99.80;;;;;;5055275;28;20223;-57
2021/06/20 08:50:29;;;;;;;9.15;8.45;;;30.40;99.40;;;;;;5055319;28;20171;-64
2021/06/20 08:52:56;;;;;;;10.25;9.45;;;30.30;99.90;;;;;;5053428;28;20203;-63
2021/06/20 08:55:23;;;;;;;9.80;9.00;;;30.40;99.60;;;;;;5055039;28;20222;-63
2021/06/20 08:57:51;;;;;;;9.20;8.50;;;30.40;99.60;;;;;;5054411;28;20237;-64
2021/06/20 09:00:18;;;;;;;10.77;9.88;;;30.40;99.50;;;;;;5054536;28;20167;-55
2021/06/20 09:02:56;;;;;;;10.25;9.15;;;30.40;99.70;;;;;;5054885;28;20542;-64
2021/06/20 09:05:21;;;;;;;10.70;9.75;;;30.30;99.70;;;;;;5053434;28;20298;-63
2021/06/20 09:07:47;;;;;;;9.73;8.82;;;30.20;99.90;;;;;;5054545;28;20270;-64
2021/06/20 09:10:21;;;;;;;10.82;9.85;;;30.30;99.90;;;;;;5053971;28;20178;-59
2021/06/20 09:12:56;;;;;;;10.30;9.40;;;30.20;99.40;;;;;;5054685;28;20167;-63
2021/06/20 09:15:28;;;;;;;9.88;8.98;;;30.20;99.80;;;;;;5054914;28;20214;-63
2021/06/20 09:17:57;;;;;;;10.05;9.15;;;30.30;99.90;;;;;;5054165;28;20678;-54
2021/06/20 09:20:36;;;;;;;9.95;9.15;;;30.30;99.90;;;;;;5054235;28;20655;-63
2021/06/20 09:23:06;;;;;;;9.65;8.85;;;30.50;99.90;;;;;;5053258;28;20198;-63
2021/06/20 09:25:31;;;;;;;9.93;9.13;;;30.70;99.90;;;;;;5054374;28;20226;-56
2021/06/20 09:27:59;;;;;;;9.20;8.50;;;30.90;99.90;;;;;;5053732;28;20196;-63
2021/06/20 09:30:27;;;;;;;10.38;9.52;;;30.90;99.60;;;;;;5054511;28;20182;-58
2021/06/20 09:32:52;;;;;;;10.85;9.95;;;30.80;99.70;;;;;;5053908;28;20250;-56
2021/06/20 09:35:18;;;;;;;11.65;10.65;;;30.90;99.90;;;;;;5052886;28;20649;-64
2021/06/20 09:37:51;;;;;;;10.65;9.52;;;31.00;99.30;;;;;;5052786;28;20313;-64
2021/06/20 09:40:17;;;;;;;10.02;9.20;;;31.00;99.90;;;;;;5052888;28;20183;-64
2021/06/20 09:42:44;;;;;;;9.63;8.80;;;30.80;99.90;;;;;;5053717;28;20179;-64
2021/06/20 09:45:10;;;;;;;10.30;9.50;;;30.60;99.90;;;;;;5054418;28;20278;-64
2021/06/20 09:47:41;;;;;;;9.82;9.02;;;30.70;99.90;;;;;;5054236;28;20184;-59
2021/06/20 09:50:08;;;;;;;10.18;9.38;;;30.50;99.90;;;;;;5053822;28;20167;-64
2021/06/20 09:52:36;;;;;;;10.35;9.55;;;30.20;99.90;;;;;;5052587;28;20198;-56
2021/06/20 09:55:13;;;;;;;9.70;8.90;;;30.00;99.90;;;;;;5053610;28;20222;-63
2021/06/20 09:57:46;;;;;;;9.95;9.02;;;29.90;99.90;;;;;;5065529;28;20205;-59
2021/06/20 10:00:13;;;;;;;10.27;9.38;;;29.90;99.90;;;;;;5063988;28;20179;-58
2021/06/20 10:02:41;;;;;;;9.70;8.90;;;30.00;99.90;;;;;;5053644;28;20182;-57
2021/06/20 10:05:08;;;;;;;10.05;9.15;;;30.00;99.90;;;;;;5054223;28;20203;-54
2021/06/20 10:07:34;;;;;;;9.77;8.88;;;30.50;99.80;;;;;;5053434;28;20244;-57
2021/06/20 10:10:01;;;;;;;9.57;8.70;;;30.90;99.90;;;;;;5053987;28;20167;-64
2021/06/20 10:12:28;;;;;;;11.20;10.13;;;30.90;99.90;;;;;;5053185;28;20607;-62
2021/06/20 10:14:56;;;;;;;9.40;8.60;;;30.90;99.00;;;;;;5053709;28;20584;-64
2021/06/20 10:17:40;;;;;;;10.48;9.20;;;30.70;99.90;;;;;;5053588;28;20191;-59
2021/06/20 10:20:13;;;;;;;9.32;8.60;;;30.60;99.90;;;;;;5054382;28;20183;-57
2021/06/20 10:22:38;;;;;;;10.38;9.38;;;30.60;99.90;;;;;;5052422;28;20888;-58
2021/06/20 10:25:09;;;;;;;10.15;9.07;;;30.60;99.90;;;;;;5053384;28;20191;-65
2021/06/20 10:27:38;;;;;;;11.13;10.10;;;30.80;99.90;;;;;;5053158;28;20195;-56
2021/06/20 10:30:17;;;;;;;11.02;10.23;;;30.90;99.30;;;;;;5053255;28;20263;-64
2021/06/20 10:32:46;;;;;;;10.00;9.10;;;30.80;99.00;;;;;;5053050;28;20183;-64
2021/06/20 10:35:23;;;;;;;10.02;9.23;;;30.90;99.30;;;;;;5052673;28;20183;-59
2021/06/20 10:37:52;;;;;;;10.82;9.82;;;31.40;99.00;;;;;;5053477;28;20630;-56
2021/06/20 10:40:43;;;;;;;10.63;9.73;;;31.70;99.00;;;;;;5052439;28;20167;-57
2021/06/20 10:43:18;;;;;;;9.75;9.00;;;32.10;98.00;;;;;;5053115;28;20508;-64
2021/06/20 10:45:45;;;;;;;10.05;9.15;;;32.40;98.70;;;;;;5053281;28;20206;-64
2021/06/20 10:48:14;;;;;;;10.05;9.10;;;32.90;97.10;;;;;;5053470;28;20205;-60
2021/06/20 10:50:42;;;;;;;10.65;9.75;;;33.00;96.20;;;;;;5053314;28;20497;-64
2021/06/20 10:53:08;;;;;;;10.30;9.50;;;32.80;96.40;;;;;;5052091;28;20184;-64
2021/06/20 10:55:46;;;;;;;9.40;8.60;;;33.10;96.50;;;;;;5053504;28;20248;-58
2021/06/20 10:58:34;;;;;;;9.23;8.43;;;33.40;95.50;;;;;;5052230;28;20196;-58
2021/06/20 11:01:11;;;;;;;9.68;8.77;;;33.30;95.40;;;;;;5052884;28;20647;-64
2021/06/20 11:03:38;;;;;;;10.15;9.15;;;33.20;95.50;;;;;;5054057;28;20175;-64
2021/06/20 11:06:07;;;;;;;9.32;8.63;;;33.00;96.30;;;;;;5053455;28;20659;-59
2021/06/20 11:08:35;;;;;;;9.30;8.40;;;33.00;95.40;;;;;;5053018;28;20277;-56
2021/06/20 11:11:25;;;;;;;9.30;8.60;;;33.20;98.40;;;;;;5052818;28;20183;-58
2021/06/20 11:13:57;;;;;;;9.65;8.77;;;33.50;97.60;;;;;;5051794;28;20194;-64
2021/06/20 11:16:40;;;;;;;9.98;9.15;;;33.90;95.70;;;;;;5052987;28;20171;-60
2021/06/20 11:19:20;;;;;;;10.20;9.40;;;34.00;97.10;;;;;;5052090;28;20176;-65
2021/06/20 11:21:57;;;;;;;9.40;8.70;;;33.70;95.20;;;;;;5053522;28;20171;-60
2021/06/20 11:24:30;;;;;;;9.63;8.82;;;33.40;98.20;;;;;;5055650;28;20222;-58
2021/06/20 11:27:01;;;;;;;9.57;8.77;;;33.20;97.00;;;;;;5054997;28;20211;-65
2021/06/20 11:29:53;;;;;;;9.98;8.25;;;33.20;96.10;;;;;;5056412;28;20170;-63
2021/06/20 11:32:25;;;;;;;9.73;8.93;;;33.30;96.70;;;;;;5056257;28;20233;-64
2021/06/20 11:35:03;;;;;;;9.15;8.45;;;33.40;96.70;;;;;;5057010;28;20205;-58
2021/06/20 11:37:36;;;;;;;10.20;9.35;;;33.40;95.40;;;;;;5055280;28;20264;-63
2021/06/20 11:40:06;;;;;;;10.57;9.52;;;33.40;96.40;;;;;;5056338;28;20178;-60
2021/06/20 11:42:33;;;;;;;9.40;8.70;;;33.20;95.70;;;;;;5055373;28;20172;-64
2021/06/20 11:45:10;;;;;;;10.90;9.60;;;33.30;96.10;;;;;;5056139;28;20628;-55
2021/06/20 11:47:40;;;;;;;9.93;9.10;;;33.30;96.80;;;;;;5056182;28;20278;-58
2021/06/20 11:50:19;;;;;;;10.18;9.38;;;33.30;95.60;;;;;;5054917;28;20508;-65
2021/06/20 11:52:47;;;;;;;9.98;9.07;;;33.30;94.40;;;;;;5055984;28;20210;-65
2021/06/20 11:55:13;;;;;;;9.80;9.00;;;33.40;94.90;;;;;;5055005;28;20691;-64
2021/06/20 11:57:38;;;;;;;9.77;9.05;;;33.30;94.40;;;;;;5056139;28;20226;-56
2021/06/20 12:00:16;;;;;;;9.95;9.15;;;33.10;94.70;;;;;;5055873;28;20175;-64
2021/06/20 12:02:45;;;;;;;9.35;8.55;;;32.70;95.10;;;;;;5056061;28;20171;-64
2021/06/20 12:05:13;;;;;;;9.43;8.73;;;32.70;95.30;;;;;;5055364;28;20192;-62
2021/06/20 12:07:39;;;;;;;8.63;7.88;;;32.90;94.90;;;;;;5055343;28;20260;-59
2021/06/20 12:10:05;;;;;;;9.40;8.48;;;33.10;93.90;;;;;;5056059;28;20171;-63
2021/06/20 12:12:32;;;;;;;9.02;8.32;;;33.20;96.10;;;;;;5054488;28;20180;-58
2021/06/20 12:15:00;;;;;;;9.02;7.95;;;32.90;95.80;;;;;;5056531;28;20213;-63
2021/06/20 12:17:28;;;;;;;8.73;7.97;;;33.10;96.50;;;;;;5055743;28;20195;-61
2021/06/20 12:19:54;;;;;;;9.40;8.60;;;33.10;94.80;;;;;;5055584;28;20535;-59
2021/06/20 12:22:21;;;;;;;10.68;8.35;;;33.30;94.70;;;;;;5054554;28;20714;-63
2021/06/20 12:24:49;;;;;;;9.23;8.52;;;33.50;95.30;;;;;;5054803;28;20164;-57
2021/06/20 12:27:27;;;;;;;9.85;8.50;;;33.60;97.00;;;;;;5055099;28;20662;-64
2021/06/20 12:29:53;;;;;;;9.57;8.68;;;33.70;94.00;;;;;;5054202;28;20234;-59
2021/06/20 12:32:18;;;;;;;9.18;8.35;;;34.00;93.10;;;;;;5055270;28;20171;-64
2021/06/20 12:34:47;;;;;;;9.80;9.00;;;34.40;93.10;;;;;;5053806;28;20872;-60
2021/06/20 12:37:14;;;;;;;10.20;9.20;;;34.40;93.30;;;;;;5070276;28;20682;-64
2021/06/20 12:39:42;;;;;;;9.73;8.82;;;34.00;94.40;;;;;;5055286;28;20167;-63
2021/06/20 12:42:08;;;;;;;10.73;9.68;;;34.00;95.80;;;;;;5053975;28;20566;-64
2021/06/20 12:44:54;;;;;;;10.80;9.85;;;34.10;93.80;;;;;;5055449;28;20682;-60
2021/06/20 12:47:34;;;;;;;9.68;8.77;;;34.10;93.00;;;;;;5053568;28;20219;-64